Time;durP1;ratioP1;P1;durP2;ratioP2;P2;SDS_P1;SDS_P2;PMS_P1;PMS_P2;Temp;Humidity;BMP_temperature;BMP_pressure;BME280_temperature;BME280_humidity;BME280_pressure;Samples;Min_cycle;Max_cycle;Signal;HPM_P1;HPM_P2
2021/08/30 00:01:00;;;;;;;15.52;8.68;;;;;;;;;;4972412;28;20026;-71
2021/08/30 00:03:27;;;;;;;19.38;8.75;;;;;;;;;;4990580;28;20164;-71
2021/08/30 00:05:53;;;;;;;12.90;9.27;;;;;;;;;;4990338;28;20026;-72
2021/08/30 00:08:20;;;;;;;14.35;9.65;;;;;;;;;;4990493;28;20041;-72
2021/08/30 00:10:45;;;;;;;15.32;8.63;;;;;;;;;;4972940;28;20032;-71
2021/08/30 00:13:11;;;;;;;14.60;8.88;;;;;;;;;;4972385;28;20132;-72
2021/08/30 00:15:36;;;;;;;18.55;9.50;;;;;;;;;;4990112;28;20030;-72
2021/08/30 00:18:02;;;;;;;13.80;9.68;;;;;;;;;;4972461;28;20030;-71
2021/08/30 00:20:27;;;;;;;20.65;10.07;;;;;;;;;;4990824;28;20036;-70
2021/08/30 00:22:53;;;;;;;15.38;10.18;;;;;;;;;;4990322;28;20030;-71
2021/08/30 00:25:19;;;;;;;18.77;11.07;;;;;;;;;;4972921;28;20072;-72
2021/08/30 00:27:45;;;;;;;15.30;10.30;;;;;;;;;;4990648;28;20081;-72
2021/08/30 00:30:11;;;;;;;20.95;10.70;;;;;;;;;;4972619;28;20447;-71
2021/08/30 00:32:37;;;;;;;15.82;9.88;;;;;;;;;;4989986;28;20105;-71
2021/08/30 00:35:04;;;;;;;14.83;9.50;;;;;;;;;;4989700;28;20054;-70
2021/08/30 00:37:30;;;;;;;14.45;9.77;;;;;;;;;;4989767;28;20030;-71
2021/08/30 00:39:55;;;;;;;21.95;10.40;;;;;;;;;;4989812;28;20026;-72
2021/08/30 00:42:21;;;;;;;14.60;9.50;;;;;;;;;;4989788;28;20089;-71
2021/08/30 00:44:46;;;;;;;15.70;9.87;;;;;;;;;;4989879;28;20390;-72
2021/08/30 00:47:13;;;;;;;15.67;10.00;;;;;;;;;;4989467;28;20034;-72
2021/08/30 00:49:39;;;;;;;21.10;11.37;;;;;;;;;;4971956;28;20037;-72
2021/08/30 00:52:05;;;;;;;15.07;10.23;;;;;;;;;;4989474;28;20030;-72
2021/08/30 00:54:32;;;;;;;14.67;10.20;;;;;;;;;;4989708;28;20038;-71
2021/08/30 00:56:59;;;;;;;16.40;9.70;;;;;;;;;;4971870;28;20037;-71
2021/08/30 00:59:25;;;;;;;15.02;10.43;;;;;;;;;;4972420;28;20019;-71
2021/08/30 01:01:51;;;;;;;16.35;9.80;;;;;;;;;;4974193;28;20030;-72
2021/08/30 01:04:17;;;;;;;13.60;9.57;;;;;;;;;;4993452;28;20034;-72
2021/08/30 01:06:55;;;;;;;21.77;10.38;;;;;;;;;;4993303;28;20466;-71
2021/08/30 01:09:42;;;;;;;15.13;9.37;;;;;;;;;;4975626;28;20402;-71
2021/08/30 01:12:12;;;;;;;16.05;8.95;;;;;;;;;;4992893;28;20030;-71
2021/08/30 01:14:47;;;;;;;16.10;9.80;;;;;;;;;;4975546;28;20065;-71
2021/08/30 01:17:15;;;;;;;15.10;9.50;;;;;;;;;;4975259;28;20037;-71
2021/08/30 01:19:48;;;;;;;17.03;10.27;;;;;;;;;;4975403;28;20117;-72
2021/08/30 01:22:15;;;;;;;15.77;10.07;;;;;;;;;;4992873;28;20030;-70
2021/08/30 01:24:42;;;;;;;16.77;9.90;;;;;;;;;;4975419;28;20120;-71
2021/08/30 01:27:08;;;;;;;13.13;8.60;;;;;;;;;;4992740;28;20061;-72
2021/08/30 01:29:46;;;;;;;13.93;8.40;;;;;;;;;;4993271;28;20026;-71
2021/08/30 01:32:26;;;;;;;13.43;8.97;;;;;;;;;;4992525;28;20378;-71
2021/08/30 01:34:53;;;;;;;11.70;8.57;;;;;;;;;;4975246;28;20064;-72
2021/08/30 01:37:19;;;;;;;16.10;9.80;;;;;;;;;;4992891;28;20027;-71
2021/08/30 01:39:45;;;;;;;16.97;8.57;;;;;;;;;;4992382;28;20482;-72
2021/08/30 01:42:11;;;;;;;12.83;8.60;;;;;;;;;;4975016;28;20026;-71
2021/08/30 01:44:37;;;;;;;14.87;9.30;;;;;;;;;;4974817;28;20029;-71
2021/08/30 01:47:03;;;;;;;17.77;9.40;;;;;;;;;;4974563;28;20030;-71
2021/08/30 01:49:30;;;;;;;13.17;9.23;;;;;;;;;;4975037;28;20026;-71
2021/08/30 01:51:57;;;;;;;14.23;9.07;;;;;;;;;;4974621;28;20486;-72
2021/08/30 01:54:24;;;;;;;15.33;9.87;;;;;;;;;;4974702;28;20116;-70
2021/08/30 01:56:52;;;;;;;15.53;9.17;;;;;;;;;;4992211;28;20502;-72
2021/08/30 02:02:07;;;;;;;14.83;9.60;;;;;;;;;;4991820;28;20041;-70
2021/08/30 02:04:36;;;;;;;13.43;9.40;;;;;;;;;;4992067;28;20034;-72
2021/08/30 02:07:04;;;;;;;14.93;9.90;;;;;;;;;;4992138;28;20097;-71
2021/08/30 02:09:29;;;;;;;15.63;9.97;;;;;;;;;;4974553;28;20030;-72
2021/08/30 02:11:55;;;;;;;13.03;10.33;;;;;;;;;;4992215;28;20030;-73
2021/08/30 02:14:22;;;;;;;17.47;10.60;;;;;;;;;;4991231;28;20026;-73
2021/08/30 02:16:49;;;;;;;14.67;9.33;;;;;;;;;;4974211;28;20026;-72
2021/08/30 02:19:30;;;;;;;16.50;10.13;;;;;;;;;;4974321;28;20034;-71
2021/08/30 02:22:00;;;;;;;20.13;10.43;;;;;;;;;;4974109;28;20105;-73
2021/08/30 02:24:52;;;;;;;14.50;9.40;;;;;;;;;;4992299;28;20022;-72
2021/08/30 02:27:25;;;;;;;;;;;;;;;;;;4974086;28;20053;-70
2021/08/30 02:30:04;;;;;;;12.87;9.07;;;;;;;;;;4974251;28;19933;-72
2021/08/30 02:32:31;;;;;;;16.03;10.37;;;;;;;;;;4991491;28;20019;-71
2021/08/30 02:35:01;;;;;;;16.80;9.93;;;;;;;;;;4973929;28;20464;-72
2021/08/30 02:37:29;;;;;;;15.23;9.93;;;;;;;;;;4974082;28;20022;-72
2021/08/30 02:39:57;;;;;;;16.83;8.80;;;;;;;;;;4991409;28;20077;-71
2021/08/30 02:42:23;;;;;;;16.70;8.97;;;;;;;;;;4991612;28;20037;-72
2021/08/30 02:44:49;;;;;;;19.20;10.10;;;;;;;;;;4974089;28;20054;-72
2021/08/30 02:47:16;;;;;;;15.23;10.57;;;;;;;;;;4973711;28;20544;-71
2021/08/30 02:49:44;;;;;;;13.57;9.53;;;;;;;;;;4973827;28;20056;-71
2021/08/30 02:52:10;;;;;;;16.87;9.30;;;;;;;;;;4991155;28;20019;-71
2021/08/30 02:54:37;;;;;;;18.83;11.50;;;;;;;;;;4990163;28;20028;-70
2021/08/30 02:57:05;;;;;;;15.37;9.13;;;;;;;;;;4973335;28;20033;-71
2021/08/30 02:59:31;;;;;;;18.33;10.13;;;;;;;;;;4991315;28;20026;-70
2021/08/30 03:01:59;;;;;;;16.50;10.07;;;;;;;;;;4991166;28;20023;-70
2021/08/30 03:04:26;;;;;;;20.17;10.50;;;;;;;;;;4973645;28;20573;-70
2021/08/30 03:06:52;;;;;;;16.33;10.03;;;;;;;;;;4991166;28;20026;-71
2021/08/30 03:09:18;;;;;;;14.47;9.17;;;;;;;;;;4973403;28;20062;-72
2021/08/30 03:11:47;;;;;;;15.03;10.23;;;;;;;;;;4990857;28;20490;-70
2021/08/30 03:14:15;;;;;;;18.07;11.47;;;;;;;;;;4990937;28;20027;-71
2021/08/30 03:16:41;;;;;;;19.07;10.63;;;;;;;;;;4973236;28;20117;-72
2021/08/30 03:19:11;;;;;;;16.33;9.57;;;;;;;;;;4990740;28;20026;-71
2021/08/30 03:21:37;;;;;;;14.97;9.30;;;;;;;;;;4973467;28;20123;-73
2021/08/30 03:24:06;;;;;;;13.97;8.67;;;;;;;;;;4972934;28;20479;-72
2021/08/30 03:26:32;;;;;;;22.23;8.80;;;;;;;;;;4990764;28;20046;-71
2021/08/30 03:28:58;;;;;;;17.37;10.43;;;;;;;;;;4973161;28;20034;-71
2021/08/30 03:31:27;;;;;;;19.17;9.63;;;;;;;;;;4990376;28;20030;-72
2021/08/30 03:33:53;;;;;;;21.07;10.43;;;;;;;;;;4990730;28;20121;-73
2021/08/30 03:36:19;;;;;;;15.03;9.67;;;;;;;;;;4973751;28;20034;-70
2021/08/30 03:38:44;;;;;;;18.30;10.30;;;;;;;;;;4990943;28;20112;-71
2021/08/30 03:41:14;;;;;;;16.03;9.93;;;;;;;;;;4973030;28;20395;-70
2021/08/30 03:43:42;;;;;;;20.93;10.50;;;;;;;;;;4972940;28;20053;-72
2021/08/30 03:46:08;;;;;;;18.70;9.33;;;;;;;;;;4972528;28;20438;-70
2021/08/30 03:48:34;;;;;;;20.43;10.03;;;;;;;;;;4972989;28;20443;-71
2021/08/30 03:51:00;;;;;;;17.43;9.53;;;;;;;;;;4990281;28;20029;-72
2021/08/30 03:53:27;;;;;;;13.87;9.50;;;;;;;;;;4972673;28;20029;-71
2021/08/30 03:55:53;;;;;;;15.13;9.73;;;;;;;;;;4990452;28;20554;-71
2021/08/30 03:58:19;;;;;;;21.30;10.83;;;;;;;;;;4990121;28;20030;-71
2021/08/30 04:00:46;;;;;;;16.43;10.00;;;;;;;;;;4972556;28;20019;-70
2021/08/30 04:03:12;;;;;;;19.27;10.50;;;;;;;;;;4989938;28;20026;-71
2021/08/30 04:05:40;;;;;;;16.47;10.73;;;;;;;;;;4990194;28;20033;-70
2021/08/30 04:08:09;;;;;;;18.60;11.47;;;;;;;;;;4972223;28;20498;-71
2021/08/30 04:10:36;;;;;;;19.23;11.10;;;;;;;;;;4990124;28;20057;-72
2021/08/30 04:13:03;;;;;;;19.70;10.37;;;;;;;;;;4990248;28;20023;-72
2021/08/30 04:15:30;;;;;;;19.30;10.37;;;;;;;;;;4990483;28;20506;-71
2021/08/30 04:17:55;;;;;;;18.80;11.27;;;;;;;;;;4973511;28;20023;-71
2021/08/30 04:20:21;;;;;;;21.20;11.67;;;;;;;;;;4991110;28;20026;-71
2021/08/30 04:22:46;;;;;;;19.10;11.13;;;;;;;;;;4991330;28;20053;-71
2021/08/30 04:25:13;;;;;;;15.50;9.93;;;;;;;;;;4990283;28;20026;-71
2021/08/30 04:27:39;;;;;;;23.23;13.90;;;;;;;;;;4989987;28;20344;-71
2021/08/30 04:30:05;;;;;;;19.73;10.80;;;;;;;;;;4972338;28;20034;-71
2021/08/30 04:32:33;;;;;;;17.83;11.23;;;;;;;;;;4990227;28;20041;-71
2021/08/30 04:35:00;;;;;;;19.33;12.57;;;;;;;;;;4990130;28;20023;-72
2021/08/30 04:37:26;;;;;;;18.37;11.10;;;;;;;;;;4974704;28;20026;-72
2021/08/30 04:39:51;;;;;;;19.53;10.63;;;;;;;;;;4994185;28;20380;-71
2021/08/30 04:42:17;;;;;;;21.63;11.83;;;;;;;;;;4975902;28;20057;-75
2021/08/30 04:44:42;;;;;;;18.47;11.80;;;;;;;;;;4976337;28;20029;-75
2021/08/30 04:47:08;;;;;;;18.40;11.57;;;;;;;;;;4993627;28;20161;-74
2021/08/30 04:49:34;;;;;;;17.77;11.10;;;;;;;;;;4993777;28;20037;-73
2021/08/30 04:52:00;;;;;;;23.83;11.23;;;;;;;;;;4993837;28;20025;-74
2021/08/30 04:54:25;;;;;;;17.33;10.17;;;;;;;;;;4993599;28;20383;-73
2021/08/30 04:56:51;;;;;;;19.73;11.27;;;;;;;;;;4993274;28;20093;-74
2021/08/30 04:59:17;;;;;;;27.77;11.47;;;;;;;;;;4993092;28;20387;-74
2021/08/30 05:01:42;;;;;;;21.20;13.43;;;;;;;;;;4993741;28;20014;-75
2021/08/30 05:04:08;;;;;;;16.60;11.17;;;;;;;;;;4993438;28;20026;-75
2021/08/30 05:06:33;;;;;;;20.77;11.27;;;;;;;;;;4993651;28;20030;-73
2021/08/30 05:08:59;;;;;;;20.63;11.97;;;;;;;;;;4975833;28;20030;-76
2021/08/30 05:11:24;;;;;;;17.70;10.90;;;;;;;;;;4975670;28;20068;-74
2021/08/30 05:13:50;;;;;;;22.80;11.87;;;;;;;;;;4975752;28;20081;-74
2021/08/30 05:16:15;;;;;;;17.77;11.27;;;;;;;;;;4992974;28;20034;-75
2021/08/30 05:18:41;;;;;;;24.03;11.93;;;;;;;;;;4993256;28;20050;-73
2021/08/30 05:21:08;;;;;;;21.00;11.70;;;;;;;;;;4992741;28;20530;-72
2021/08/30 05:23:33;;;;;;;23.90;12.33;;;;;;;;;;4975504;28;20030;-75
2021/08/30 05:25:59;;;;;;;19.30;10.77;;;;;;;;;;4992913;28;20109;-73
2021/08/30 05:28:25;;;;;;;18.43;10.40;;;;;;;;;;4991908;28;20057;-75
2021/08/30 05:30:51;;;;;;;20.43;11.90;;;;;;;;;;4967998;28;20031;-71
2021/08/30 05:33:17;;;;;;;17.23;9.73;;;;;;;;;;4988427;28;20117;-75
2021/08/30 05:35:42;;;;;;;16.50;10.33;;;;;;;;;;5005105;28;20033;-74
2021/08/30 05:38:08;;;;;;;20.27;10.63;;;;;;;;;;4988029;28;20034;-75
2021/08/30 05:40:33;;;;;;;18.00;11.33;;;;;;;;;;4984435;28;20022;-74
2021/08/30 05:43:00;;;;;;;18.23;10.50;;;;;;;;;;4988848;28;20026;-73
2021/08/30 05:45:27;;;;;;;17.87;9.60;;;;;;;;;;4992778;28;20993;-73
2021/08/30 05:47:52;;;;;;;20.00;10.00;;;;;;;;;;4961411;28;20060;-74
2021/08/30 05:50:18;;;;;;;14.85;8.77;;;;;;;;;;4971261;28;20619;-74
2021/08/30 05:52:44;;;;;;;18.10;9.30;;;;;;;;;;4978456;28;20034;-74
2021/08/30 05:55:09;;;;;;;16.08;9.95;;;;;;;;;;4988629;28;20030;-75
2021/08/30 05:57:35;;;;;;;25.88;10.43;;;;;;;;;;4974521;28;20026;-74
2021/08/30 06:00:04;;;;;;;12.23;8.73;;;;;;;;;;4973699;28;20423;-74
2021/08/30 06:02:29;;;;;;;17.83;8.98;;;;;;;;;;4988653;28;20064;-74
2021/08/30 06:04:55;;;;;;;14.90;9.60;;;;;;;;;;4984059;28;20463;-74
2021/08/30 06:07:20;;;;;;;13.73;9.07;;;;;;;;;;4971300;28;20041;-73
2021/08/30 06:09:49;;;;;;;17.98;9.50;;;;;;;;;;4957125;28;20501;-75
2021/08/30 06:12:14;;;;;;;11.65;7.63;;;;;;;;;;4974154;28;20038;-74
2021/08/30 06:14:41;;;;;;;17.35;9.32;;;;;;;;;;4989200;28;20026;-75
2021/08/30 06:17:06;;;;;;;17.08;9.93;;;;;;;;;;4966193;28;20097;-73
2021/08/30 06:19:32;;;;;;;14.57;9.38;;;;;;;;;;4966335;28;20073;-74
2021/08/30 06:21:58;;;;;;;19.00;11.38;;;;;;;;;;4966316;28;20415;-76
2021/08/30 06:24:23;;;;;;;15.90;9.85;;;;;;;;;;4971371;28;20066;-74
2021/08/30 06:26:49;;;;;;;13.20;9.07;;;;;;;;;;4965116;28;20128;-74
2021/08/30 06:29:14;;;;;;;17.70;10.73;;;;;;;;;;4965628;28;20546;-74
2021/08/30 06:31:40;;;;;;;14.63;9.10;;;;;;;;;;4968942;28;20053;-75
2021/08/30 06:34:05;;;;;;;21.48;11.60;;;;;;;;;;4968158;28;20072;-74
2021/08/30 06:36:31;;;;;;;13.48;9.75;;;;;;;;;;4984384;28;20046;-75
2021/08/30 06:38:56;;;;;;;18.30;8.68;;;;;;;;;;4967658;28;20030;-75
2021/08/30 06:41:23;;;;;;;15.50;8.23;;;;;;;;;;4984854;28;20029;-73
2021/08/30 06:43:49;;;;;;;13.50;8.32;;;;;;;;;;4965923;28;20038;-76
2021/08/30 06:46:14;;;;;;;17.77;9.02;;;;;;;;;;4969180;28;20034;-74
2021/08/30 06:48:40;;;;;;;14.02;9.05;;;;;;;;;;4988844;28;20034;-74
2021/08/30 06:51:05;;;;;;;13.93;8.40;;;;;;;;;;4951598;28;20030;-72
2021/08/30 06:53:31;;;;;;;20.75;8.82;;;;;;;;;;4964909;28;20367;-74
2021/08/30 06:55:56;;;;;;;17.95;9.40;;;;;;;;;;4976537;28;20038;-73
2021/08/30 06:58:22;;;;;;;13.77;8.68;;;;;;;;;;4955925;28;20808;-73
2021/08/30 07:00:48;;;;;;;16.40;9.23;;;;;;;;;;4982419;28;20022;-72
2021/08/30 07:03:14;;;;;;;12.90;8.02;;;;;;;;;;4982002;28;20496;-75
2021/08/30 07:05:40;;;;;;;13.63;8.40;;;;;;;;;;4977363;28;21431;-73
2021/08/30 07:08:06;;;;;;;11.50;8.20;;;;;;;;;;4964753;28;20041;-75
2021/08/30 07:10:31;;;;;;;16.23;9.27;;;;;;;;;;4986911;28;20026;-76
2021/08/30 07:12:57;;;;;;;12.48;9.00;;;;;;;;;;4985268;28;20036;-74
2021/08/30 07:15:23;;;;;;;20.63;9.23;;;;;;;;;;4970611;28;20113;-73
2021/08/30 07:17:48;;;;;;;16.67;10.07;;;;;;;;;;4956243;28;20125;-72
2021/08/30 07:20:14;;;;;;;18.83;10.63;;;;;;;;;;4962604;28;20344;-74
2021/08/30 07:22:40;;;;;;;17.25;9.93;;;;;;;;;;4968931;28;20037;-74
2021/08/30 07:25:05;;;;;;;13.23;9.15;;;;;;;;;;4985061;28;20037;-74
2021/08/30 07:27:31;;;;;;;16.00;10.25;;;;;;;;;;4981644;28;20042;-73
2021/08/30 07:29:56;;;;;;;28.15;11.02;;;;;;;;;;4963075;28;20141;-75
2021/08/30 07:32:22;;;;;;;18.15;9.48;;;;;;;;;;4963747;28;20035;-75
2021/08/30 07:34:47;;;;;;;18.02;9.57;;;;;;;;;;4972320;28;20444;-73
2021/08/30 07:37:13;;;;;;;30.17;12.30;;;;;;;;;;4980308;28;20051;-73
2021/08/30 07:39:38;;;;;;;16.90;9.30;;;;;;;;;;4977870;28;20497;-74
2021/08/30 07:42:04;;;;;;;17.50;9.35;;;;;;;;;;4988818;28;20490;-74
2021/08/30 07:44:30;;;;;;;19.95;10.25;;;;;;;;;;4992607;28;20030;-75
2021/08/30 07:46:55;;;;;;;18.48;10.77;;;;;;;;;;4990175;28;20505;-76
2021/08/30 07:49:21;;;;;;;19.45;10.10;;;;;;;;;;4965951;28;20112;-73
2021/08/30 07:51:47;;;;;;;15.50;9.15;;;;;;;;;;4970652;28;20057;-74
2021/08/30 07:54:13;;;;;;;16.48;9.98;;;;;;;;;;4992078;28;20042;-75
2021/08/30 07:56:40;;;;;;;17.27;9.70;;;;;;;;;;4982454;28;20721;-74
2021/08/30 07:59:07;;;;;;;18.92;9.65;;;;;;;;;;4985081;28;20034;-76
2021/08/30 08:01:33;;;;;;;24.15;10.68;;;;;;;;;;4969362;28;20042;-76
2021/08/30 08:03:58;;;;;;;19.85;10.23;;;;;;;;;;4968829;28;20026;-76
2021/08/30 08:06:24;;;;;;;19.00;10.70;;;;;;;;;;4967609;28;20026;-72
2021/08/30 08:08:49;;;;;;;21.90;10.75;;;;;;;;;;4991386;28;20033;-75
2021/08/30 08:11:15;;;;;;;16.27;9.98;;;;;;;;;;4990950;28;20049;-74
2021/08/30 08:13:43;;;;;;;16.80;11.10;;;;;;;;;;4978215;28;20149;-75
2021/08/30 08:16:10;;;;;;;23.40;12.80;;;;;;;;;;4991003;28;20475;-74
2021/08/30 08:18:35;;;;;;;21.35;11.15;;;;;;;;;;4989734;28;20066;-74
2021/08/30 08:21:04;;;;;;;17.77;10.93;;;;;;;;;;4991450;28;20060;-73
2021/08/30 08:23:31;;;;;;;15.85;10.25;;;;;;;;;;4994164;28;20089;-73
2021/08/30 08:25:56;;;;;;;18.80;10.80;;;;;;;;;;4989173;28;20072;-73
2021/08/30 08:28:23;;;;;;;20.73;11.30;;;;;;;;;;4993335;28;20128;-72
2021/08/30 08:30:48;;;;;;;21.65;11.20;;;;;;;;;;4981318;28;20112;-73
2021/08/30 08:33:14;;;;;;;20.48;11.30;;;;;;;;;;4990767;28;20527;-74
2021/08/30 08:35:41;;;;;;;17.80;10.25;;;;;;;;;;4992541;28;20038;-74
2021/08/30 08:38:11;;;;;;;14.85;9.85;;;;;;;;;;4992197;28;20360;-74
2021/08/30 08:40:37;;;;;;;19.25;11.07;;;;;;;;;;4972787;28;20502;-75
2021/08/30 08:43:11;;;;;;;24.50;12.35;;;;;;;;;;4973754;28;20026;-74
2021/08/30 08:45:42;;;;;;;17.48;10.48;;;;;;;;;;4971037;28;20071;-73
2021/08/30 08:48:07;;;;;;;20.38;11.10;;;;;;;;;;4986763;28;20184;-74
2021/08/30 08:50:34;;;;;;;16.45;10.02;;;;;;;;;;4968164;28;20030;-76
2021/08/30 08:53:04;;;;;;;19.95;11.23;;;;;;;;;;4985201;28;20058;-75
2021/08/30 08:55:33;;;;;;;26.02;12.35;;;;;;;;;;4962068;28;20022;-74
2021/08/30 08:58:14;;;;;;;22.27;10.43;;;;;;;;;;4973046;28;20037;-75
2021/08/30 09:00:41;;;;;;;17.90;10.57;;;;;;;;;;4963840;28;20109;-74
2021/08/30 09:03:20;;;;;;;17.48;9.95;;;;;;;;;;4970952;28;20034;-73
2021/08/30 09:05:46;;;;;;;20.13;11.82;;;;;;;;;;4992920;28;20113;-74
2021/08/30 09:08:36;;;;;;;17.98;9.73;;;;;;;;;;4979705;28;20034;-75
2021/08/30 09:11:02;;;;;;;15.20;9.88;;;;;;;;;;4981577;28;20030;-74
2021/08/30 09:13:31;;;;;;;15.23;8.27;;;;;;;;;;4982413;28;20034;-73
2021/08/30 09:15:59;;;;;;;17.85;9.75;;;;;;;;;;4989664;28;20061;-76
2021/08/30 09:18:30;;;;;;;17.02;10.27;;;;;;;;;;4976989;28;20125;-73
2021/08/30 09:21:10;;;;;;;21.60;9.15;;;;;;;;;;4975224;28;20024;-75
2021/08/30 09:23:39;;;;;;;16.83;9.32;;;;;;;;;;4979234;28;20051;-75
2021/08/30 09:26:04;;;;;;;17.80;9.07;;;;;;;;;;4993935;28;20033;-74
2021/08/30 09:28:37;;;;;;;12.35;8.35;;;;;;;;;;4978058;28;20046;-75
2021/08/30 09:31:03;;;;;;;10.93;7.03;;;;;;;;;;4966030;28;20038;-75
2021/08/30 09:33:28;;;;;;;11.88;7.60;;;;;;;;;;4994151;28;20073;-74
2021/08/30 09:35:59;;;;;;;10.27;7.20;;;;;;;;;;4969263;28;20368;-74
2021/08/30 09:38:27;;;;;;;11.07;7.95;;;;;;;;;;4956448;28;20038;-73
2021/08/30 09:41:14;;;;;;;21.52;8.60;;;;;;;;;;4987499;28;20482;-74
2021/08/30 09:43:40;;;;;;;12.15;7.95;;;;;;;;;;4972290;28;20035;-75
2021/08/30 09:46:08;;;;;;;12.77;6.30;;;;;;;;;;4985800;28;20039;-73
2021/08/30 09:48:34;;;;;;;9.77;6.85;;;;;;;;;;4970227;28;20026;-78
2021/08/30 09:51:05;;;;;;;8.90;6.88;;;;;;;;;;4973036;28;20029;-74
2021/08/30 09:53:33;;;;;;;12.43;7.45;;;;;;;;;;4992758;28;20165;-73
2021/08/30 09:56:00;;;;;;;11.15;6.97;;;;;;;;;;4967538;28;20113;-74
2021/08/30 09:58:27;;;;;;;14.15;8.50;;;;;;;;;;4952331;28;20719;-73
2021/08/30 10:00:59;;;;;;;14.15;6.93;;;;;;;;;;4989472;28;20037;-72
2021/08/30 10:03:30;;;;;;;34.97;20.65;;;;;;;;;;4995439;28;20474;-74
2021/08/30 10:05:57;;;;;;;9.55;7.22;;;;;;;;;;4971393;28;20605;-75
2021/08/30 10:08:24;;;;;;;9.40;7.28;;;;;;;;;;4970642;28;20030;-74
2021/08/30 10:10:50;;;;;;;9.50;7.68;;;;;;;;;;4965977;28;20125;-74
2021/08/30 10:13:18;;;;;;;14.05;7.75;;;;;;;;;;4986497;28;20029;-72
2021/08/30 10:15:44;;;;;;;10.60;7.57;;;;;;;;;;4987266;28;20133;-74
2021/08/30 10:18:17;;;;;;;10.27;7.50;;;;;;;;;;4990310;28;20117;-72
2021/08/30 10:20:45;;;;;;;10.82;7.55;;;;;;;;;;4982347;28;20024;-77
2021/08/30 10:23:11;;;;;;;8.90;7.32;;;;;;;;;;4979111;28;20030;-73
2021/08/30 10:25:39;;;;;;;11.70;7.10;;;;;;;;;;4989923;28;20041;-75
2021/08/30 10:28:09;;;;;;;13.82;10.98;;;;;;;;;;4991192;28;20066;-75
2021/08/30 10:30:36;;;;;;;13.60;9.70;;;;;;;;;;4989934;28;20034;-75
2021/08/30 10:33:05;;;;;;;12.10;9.85;;;;;;;;;;4979920;28;20081;-73
2021/08/30 10:35:36;;;;;;;13.20;9.23;;;;;;;;;;4969523;28;20554;-74
2021/08/30 10:38:08;;;;;;;14.87;9.03;;;;;;;;;;4996237;28;20374;-75
2021/08/30 10:40:36;;;;;;;12.25;8.63;;;;;;;;;;4978984;28;20686;-74
2021/08/30 10:43:08;;;;;;;11.27;9.05;;;;;;;;;;4967333;28;20025;-74
2021/08/30 10:45:45;;;;;;;13.95;9.15;;;;;;;;;;4962949;28;20030;-74
2021/08/30 10:48:13;;;;;;;11.90;9.02;;;;;;;;;;4989147;28;20036;-74
2021/08/30 10:50:42;;;;;;;11.27;8.40;;;;;;;;;;4972238;28;20041;-75
2021/08/30 10:53:29;;;;;;;13.65;7.38;;;;;;;;;;4969378;28;20111;-75
2021/08/30 10:56:07;;;;;;;14.93;9.80;;;;;;;;;;4984152;28;20034;-75
2021/08/30 10:58:33;;;;;;;12.15;7.70;;;;;;;;;;4971317;28;20113;-76
2021/08/30 11:01:13;;;;;;;11.85;8.00;;;;;;;;;;4971428;28;20021;-75
2021/08/30 11:03:39;;;;;;;8.82;6.80;;;;;;;;;;4970333;28;20628;-74
2021/08/30 11:06:11;;;;;;;8.90;7.13;;;;;;;;;;4967383;28;20443;-73
2021/08/30 11:08:43;;;;;;;11.40;6.88;;;;;;;;;;4975537;28;20030;-73
2021/08/30 11:11:14;;;;;;;;;;;;;;;;;;4992364;28;20105;-74
2021/08/30 11:13:44;;;;;;;8.40;6.10;;;;;;;;;;4970537;28;19914;-76
2021/08/30 11:16:21;;;;;;;7.15;6.05;;;;;;;;;;4961380;28;20339;-75
2021/08/30 11:19:07;;;;;;;10.02;5.35;;;;;;;;;;4989628;28;20030;-72
2021/08/30 11:21:50;;;;;;;7.10;5.97;;;;;;;;;;4983092;28;20113;-76
2021/08/30 11:24:28;;;;;;;7.53;6.55;;;;;;;;;;4991706;28;20038;-75
2021/08/30 11:27:01;;;;;;;8.00;6.28;;;;;;;;;;4985664;28;20042;-72
2021/08/30 11:29:26;;;;;;;8.85;6.20;;;;;;;;;;4987952;28;20022;-74
2021/08/30 11:31:53;;;;;;;8.90;5.65;;;;;;;;;;4970071;28;20534;-75
2021/08/30 11:34:31;;;;;;;12.80;8.18;;;;;;;;;;4962132;28;20053;-74
2021/08/30 11:36:58;;;;;;;30.02;7.43;;;;;;;;;;4986033;28;20357;-74
2021/08/30 11:39:24;;;;;;;10.75;7.10;;;;;;;;;;4970704;28;20576;-74
2021/08/30 11:42:00;;;;;;;10.23;6.20;;;;;;;;;;4967986;28;20366;-72
2021/08/30 11:44:29;;;;;;;9.02;6.07;;;;;;;;;;4987350;28;20030;-75
2021/08/30 11:46:57;;;;;;;9.38;5.20;;;;;;;;;;4976607;28;20691;-74
2021/08/30 11:49:24;;;;;;;6.35;4.50;;;;;;;;;;4972120;28;20673;-75
2021/08/30 11:51:52;;;;;;;12.88;5.00;;;;;;;;;;4981518;28;20029;-75
2021/08/30 11:54:38;;;;;;;6.10;4.20;;;;;;;;;;4950626;28;20076;-72
2021/08/30 11:57:07;;;;;;;6.03;3.33;;;;;;;;;;4965158;28;20587;-73
2021/08/30 11:59:38;;;;;;;6.55;4.18;;;;;;;;;;4967620;28;20034;-74
2021/08/30 12:02:06;;;;;;;7.20;2.92;;;;;;;;;;4969198;28;20038;-74
2021/08/30 12:04:35;;;;;;;3.90;2.83;;;;;;;;;;4966170;28;20037;-74
2021/08/30 12:07:09;;;;;;;7.15;3.60;;;;;;;;;;4952809;28;20042;-75
2021/08/30 12:09:51;;;;;;;5.35;3.25;;;;;;;;;;4988798;28;20038;-76
2021/08/30 12:12:19;;;;;;;11.35;3.92;;;;;;;;;;4984927;28;20435;-71
2021/08/30 12:15:06;;;;;;;5.25;3.75;;;;;;;;;;4970323;28;20089;-74
2021/08/30 12:17:37;;;;;;;7.70;4.32;;;;;;;;;;4970598;28;20430;-72
2021/08/30 12:20:14;;;;;;;6.40;4.03;;;;;;;;;;4987195;28;20529;-73
2021/08/30 12:22:50;;;;;;;9.85;6.22;;;;;;;;;;4988591;28;20046;-74
2021/08/30 12:25:19;;;;;;;5.25;3.72;;;;;;;;;;4979715;28;20030;-73
2021/08/30 12:27:45;;;;;;;4.93;3.63;;;;;;;;;;4963950;28;20046;-75
2021/08/30 12:30:20;;;;;;;7.47;3.67;;;;;;;;;;4980217;28;20462;-74
2021/08/30 12:33:00;;;;;;;7.55;4.22;;;;;;;;;;4984907;28;20041;-74
2021/08/30 12:35:33;;;;;;;5.70;3.80;;;;;;;;;;4983877;28;20037;-73
2021/08/30 12:38:02;;;;;;;9.07;4.45;;;;;;;;;;4966199;28;20753;-75
2021/08/30 12:40:29;;;;;;;8.23;4.88;;;;;;;;;;4984923;28;20536;-73
2021/08/30 12:42:55;;;;;;;7.07;4.30;;;;;;;;;;4968712;28;20034;-73
2021/08/30 12:45:23;;;;;;;5.95;4.38;;;;;;;;;;4983162;28;20714;-72
2021/08/30 12:47:48;;;;;;;5.63;4.40;;;;;;;;;;4984522;28;20041;-72
2021/08/30 12:50:16;;;;;;;7.35;4.85;;;;;;;;;;4968766;28;20037;-73
2021/08/30 12:52:43;;;;;;;8.73;4.75;;;;;;;;;;4976911;28;20034;-74
2021/08/30 12:55:10;;;;;;;13.13;5.10;;;;;;;;;;4974233;28;20033;-75
2021/08/30 12:57:36;;;;;;;5.72;4.40;;;;;;;;;;4968593;28;20454;-74
2021/08/30 13:00:04;;;;;;;44.53;18.92;;;;;;;;;;4970726;28;20022;-75
2021/08/30 13:02:30;;;;;;;7.70;4.53;;;;;;;;;;4974589;28;20030;-73
2021/08/30 13:04:55;;;;;;;7.85;5.38;;;;;;;;;;4986872;28;20793;-73
2021/08/30 13:07:21;;;;;;;8.13;4.20;;;;;;;;;;4985102;28;20544;-75
2021/08/30 13:09:46;;;;;;;4.35;3.20;;;;;;;;;;4969723;28;20040;-74
2021/08/30 13:12:13;;;;;;;8.18;4.72;;;;;;;;;;4996245;28;20056;-75
2021/08/30 13:14:39;;;;;;;13.10;6.10;;;;;;;;;;4989593;28;20041;-74
2021/08/30 13:17:05;;;;;;;6.75;4.22;;;;;;;;;;4990172;28;20857;-74
2021/08/30 13:19:30;;;;;;;5.93;4.00;;;;;;;;;;4991970;28;20030;-72
2021/08/30 13:21:56;;;;;;;9.07;5.50;;;;;;;;;;4993966;28;20026;-74
2021/08/30 13:24:21;;;;;;;5.50;4.07;;;;;;;;;;4992241;28;20049;-73
2021/08/30 13:26:48;;;;;;;9.43;5.07;;;;;;;;;;4963687;28;20054;-72
2021/08/30 13:29:14;;;;;;;7.45;4.72;;;;;;;;;;4969877;28;20046;-73
2021/08/30 13:31:39;;;;;;;4.20;3.70;;;;;;;;;;4969595;28;20042;-75
2021/08/30 13:34:05;;;;;;;4.63;3.95;;;;;;;;;;4972700;28;20085;-75
2021/08/30 13:36:30;;;;;;;6.50;4.43;;;;;;;;;;4973700;28;20084;-75
2021/08/30 13:38:56;;;;;;;4.78;3.85;;;;;;;;;;4977840;28;20031;-75
2021/08/30 13:41:21;;;;;;;4.25;3.42;;;;;;;;;;4964971;28;20049;-75
2021/08/30 13:43:47;;;;;;;7.43;6.03;;;;;;;;;;4961167;28;20031;-74
2021/08/30 13:46:14;;;;;;;6.38;4.13;;;;;;;;;;4967573;28;20038;-75
2021/08/30 13:48:41;;;;;;;11.27;3.97;;;;;;;;;;4969216;28;20153;-73
2021/08/30 13:51:11;;;;;;;5.78;5.05;;;;;;;;;;4970357;28;20455;-73
2021/08/30 13:53:40;;;;;;;6.90;5.13;;;;;;;;;;4956151;28;20470;-74
2021/08/30 13:56:06;;;;;;;6.30;4.60;;;;;;;;;;4956436;28;20694;-74
2021/08/30 13:58:31;;;;;;;7.40;4.53;;;;;;;;;;4956802;28;20038;-75
2021/08/30 14:00:57;;;;;;;7.50;4.70;;;;;;;;;;4950787;28;20099;-74
2021/08/30 14:03:23;;;;;;;7.30;4.00;;;;;;;;;;4969914;28;20034;-74
2021/08/30 14:05:51;;;;;;;6.47;4.07;;;;;;;;;;4960703;28;20069;-76
2021/08/30 14:08:17;;;;;;;8.60;4.97;;;;;;;;;;4965429;28;20129;-75
2021/08/30 14:10:42;;;;;;;10.23;4.40;;;;;;;;;;4970767;28;20035;-76
2021/08/30 14:13:10;;;;;;;6.55;4.68;;;;;;;;;;4962940;28;20093;-74
2021/08/30 14:15:37;;;;;;;7.50;4.88;;;;;;;;;;4970029;28;20035;-73
2021/08/30 14:18:03;;;;;;;10.40;5.15;;;;;;;;;;4967134;28;20023;-76
2021/08/30 14:20:29;;;;;;;9.20;5.30;;;;;;;;;;4943961;28;20053;-76
2021/08/30 14:22:55;;;;;;;10.35;5.47;;;;;;;;;;4969601;28;20704;-73
2021/08/30 14:25:21;;;;;;;10.95;6.68;;;;;;;;;;4969439;28;20035;-76
2021/08/30 14:27:48;;;;;;;8.75;4.95;;;;;;;;;;4980773;28;20038;-75
2021/08/30 14:30:14;;;;;;;14.15;5.57;;;;;;;;;;4968988;28;20062;-75
2021/08/30 14:32:41;;;;;;;10.98;4.72;;;;;;;;;;4970322;28;20031;-74
2021/08/30 14:35:09;;;;;;;7.68;4.65;;;;;;;;;;4987479;28;20054;-72